Time;durP1;ratioP1;P1;durP2;ratioP2;P2;SDS_P1;SDS_P2;PMS_P1;PMS_P2;Temp;Humidity;BMP_temperature;BMP_pressure;BME280_temperature;BME280_humidity;BME280_pressure;Samples;Min_cycle;Max_cycle;Signal;HPM_P1;HPM_P2
2021/09/17 00:00:41;;;;;;;1.55;1.20;;;25.40;54.30;;;;;;5032122;28;20041;-59
2021/09/17 00:03:07;;;;;;;1.60;1.20;;;25.40;54.30;;;;;;5044584;28;20037;-52
2021/09/17 00:05:33;;;;;;;1.25;1.10;;;25.30;54.20;;;;;;5044504;28;20029;-56
2021/09/17 00:07:59;;;;;;;1.73;1.30;;;25.40;54.30;;;;;;5043541;28;20016;-60
2021/09/17 00:10:25;;;;;;;1.40;1.17;;;25.30;54.20;;;;;;5035220;28;20025;-54
2021/09/17 00:12:50;;;;;;;1.65;1.20;;;25.40;54.30;;;;;;5033245;28;20089;-59
2021/09/17 00:15:16;;;;;;;1.63;1.20;;;25.30;54.20;;;;;;5041098;28;20033;-60
2021/09/17 00:17:43;;;;;;;1.80;1.20;;;25.30;54.20;;;;;;5044400;28;20051;-52
2021/09/17 00:20:10;;;;;;;1.75;1.30;;;25.30;54.20;;;;;;5046866;28;20025;-59
2021/09/17 00:22:37;;;;;;;1.63;1.30;;;25.30;54.20;;;;;;5041431;28;20172;-60
2021/09/17 00:25:03;;;;;;;1.75;1.30;;;25.30;54.30;;;;;;5046331;28;20037;-60
2021/09/17 00:27:29;;;;;;;1.40;1.20;;;25.30;54.30;;;;;;5039740;28;20338;-52
2021/09/17 00:29:55;;;;;;;1.85;1.40;;;25.30;54.30;;;;;;5039440;28;20027;-59
2021/09/17 00:32:21;;;;;;;1.38;1.20;;;25.30;54.30;;;;;;5044989;28;20456;-60
2021/09/17 00:34:46;;;;;;;2.20;1.35;;;25.30;54.30;;;;;;5046885;28;20112;-59
2021/09/17 00:37:12;;;;;;;1.75;1.10;;;25.30;54.30;;;;;;5040068;28;20078;-55
2021/09/17 00:39:38;;;;;;;1.70;1.10;;;25.20;54.20;;;;;;5041285;28;20034;-59
2021/09/17 00:42:04;;;;;;;1.75;1.20;;;25.20;54.20;;;;;;5040057;28;20049;-59
2021/09/17 00:44:29;;;;;;;1.30;1.20;;;25.30;54.30;;;;;;5033278;28;20493;-60
2021/09/17 00:46:56;;;;;;;2.67;1.33;;;25.20;54.20;;;;;;5043702;28;20107;-60
2021/09/17 00:49:23;;;;;;;2.42;1.30;;;25.30;54.30;;;;;;5029036;28;20435;-53
2021/09/17 00:51:49;;;;;;;1.50;1.15;;;25.20;54.20;;;;;;5036578;28;20025;-55
2021/09/17 00:54:15;;;;;;;1.58;1.20;;;25.20;54.30;;;;;;5044509;28;20532;-54
2021/09/17 00:56:42;;;;;;;1.98;1.30;;;25.30;54.80;;;;;;5040924;28;20046;-57
2021/09/17 00:59:08;;;;;;;1.25;1.10;;;25.20;54.30;;;;;;5032216;28;20033;-59
2021/09/17 01:01:33;;;;;;;1.70;1.20;;;25.20;54.30;;;;;;5032336;28;20083;-52
2021/09/17 01:04:00;;;;;;;1.65;1.10;;;25.20;54.20;;;;;;5042647;28;20100;-55
2021/09/17 01:06:25;;;;;;;1.77;1.25;;;25.20;54.30;;;;;;5046824;28;20044;-58
2021/09/17 01:08:51;;;;;;;1.40;1.10;;;25.20;54.30;;;;;;5035175;28;20037;-59
2021/09/17 01:11:17;;;;;;;1.50;1.25;;;25.20;54.20;;;;;;5040579;28;20114;-56
2021/09/17 01:13:45;;;;;;;1.30;1.00;;;25.20;54.30;;;;;;5045123;28;20036;-59
2021/09/17 01:16:11;;;;;;;1.30;1.00;;;25.10;54.20;;;;;;5034215;28;20049;-57
2021/09/17 01:18:36;;;;;;;1.77;1.30;;;25.10;54.20;;;;;;5035919;28;20040;-55
2021/09/17 01:21:03;;;;;;;1.15;1.05;;;25.10;54.20;;;;;;5035333;28;20373;-52
2021/09/17 01:23:29;;;;;;;1.60;1.20;;;25.10;54.20;;;;;;5039921;28;20071;-58
2021/09/17 01:25:55;;;;;;;1.92;1.20;;;25.10;54.20;;;;;;5036679;28;20029;-59
2021/09/17 01:28:26;;;;;;;2.00;1.40;;;25.10;54.30;;;;;;5041369;28;20119;-59
2021/09/17 01:30:51;;;;;;;1.50;1.20;;;25.10;54.20;;;;;;5028741;28;20033;-59
2021/09/17 01:33:17;;;;;;;1.58;1.10;;;25.10;54.20;;;;;;5035400;28;20032;-57
2021/09/17 01:35:43;;;;;;;1.42;1.20;;;25.10;54.80;;;;;;5040922;28;20031;-59
2021/09/17 01:38:09;;;;;;;2.00;1.30;;;25.10;54.30;;;;;;5028424;28;20099;-59
2021/09/17 01:40:35;;;;;;;1.58;1.20;;;25.10;54.30;;;;;;5027791;28;20108;-60
2021/09/17 01:43:01;;;;;;;1.63;1.30;;;25.10;54.80;;;;;;5036675;28;20143;-59
2021/09/17 01:45:26;;;;;;;1.63;1.20;;;25.10;54.30;;;;;;5044622;28;20022;-60
2021/09/17 01:47:52;;;;;;;1.10;0.90;;;25.10;54.30;;;;;;5034766;28;20311;-51
2021/09/17 01:50:18;;;;;;;1.75;1.20;;;25.10;54.30;;;;;;5046484;28;20021;-59
2021/09/17 01:52:43;;;;;;;1.38;1.10;;;25.10;54.30;;;;;;5040803;28;20037;-58
2021/09/17 01:55:10;;;;;;;1.30;1.20;;;25.10;54.30;;;;;;5028670;28;20052;-59
2021/09/17 01:57:36;;;;;;;2.00;1.10;;;25.10;54.30;;;;;;5046001;28;20432;-54
2021/09/17 02:00:05;;;;;;;1.65;1.20;;;25.10;54.30;;;;;;5035496;28;20025;-59
2021/09/17 02:02:31;;;;;;;1.48;1.17;;;25.10;54.20;;;;;;5046302;28;20037;-53
2021/09/17 02:04:56;;;;;;;1.35;1.10;;;25.10;54.80;;;;;;5040875;28;20082;-54
2021/09/17 02:07:22;;;;;;;1.55;1.20;;;25.10;54.30;;;;;;5040384;28;20024;-53
2021/09/17 02:09:48;;;;;;;1.30;1.10;;;25.10;54.30;;;;;;5042396;28;20442;-58
2021/09/17 02:12:14;;;;;;;1.30;1.10;;;25.10;54.30;;;;;;5030022;28;20087;-57
2021/09/17 02:14:40;;;;;;;1.10;1.00;;;25.00;54.30;;;;;;5044391;28;20131;-50
2021/09/17 02:17:05;;;;;;;1.42;1.02;;;25.00;54.50;;;;;;5038482;28;20029;-56
2021/09/17 02:19:31;;;;;;;1.40;1.10;;;25.00;54.30;;;;;;5041010;28;20069;-55
2021/09/17 02:21:57;;;;;;;1.50;1.10;;;25.00;54.30;;;;;;5041154;28;20111;-59
2021/09/17 02:24:22;;;;;;;1.40;1.10;;;25.00;54.30;;;;;;5034764;28;20167;-58
2021/09/17 02:26:48;;;;;;;1.23;1.10;;;25.00;54.30;;;;;;5049658;28;20036;-54
2021/09/17 02:29:14;;;;;;;1.40;1.15;;;25.00;54.30;;;;;;5044869;28;20036;-60
2021/09/17 02:31:39;;;;;;;1.30;1.10;;;25.00;54.30;;;;;;5033725;28;20052;-54
2021/09/17 02:34:05;;;;;;;1.10;1.00;;;25.00;54.30;;;;;;5038326;28;20017;-52
2021/09/17 02:36:31;;;;;;;1.52;1.10;;;25.00;54.30;;;;;;5043256;28;20029;-57
2021/09/17 02:38:57;;;;;;;1.63;1.20;;;25.00;54.30;;;;;;5039432;28;20108;-51
2021/09/17 02:41:23;;;;;;;2.05;1.10;;;24.90;54.30;;;;;;5047481;28;20215;-50
2021/09/17 02:43:48;;;;;;;1.30;1.00;;;25.00;54.30;;;;;;5040440;28;20034;-58
2021/09/17 02:46:14;;;;;;;1.70;1.30;;;25.00;54.30;;;;;;5048482;28;20033;-60
2021/09/17 02:48:41;;;;;;;1.45;1.05;;;24.90;54.30;;;;;;5031262;28;20172;-60
2021/09/17 02:51:07;;;;;;;1.35;1.10;;;24.90;54.30;;;;;;5035583;28;20037;-55
2021/09/17 02:53:33;;;;;;;1.10;1.00;;;25.00;54.30;;;;;;5037956;28;20048;-55
2021/09/17 02:55:58;;;;;;;1.48;1.10;;;24.90;54.30;;;;;;5047803;28;20032;-60
2021/09/17 02:58:24;;;;;;;1.50;1.15;;;24.90;54.30;;;;;;5046843;28;20144;-59
2021/09/17 03:00:49;;;;;;;1.20;1.10;;;24.90;54.30;;;;;;5041736;28;20034;-52
2021/09/17 03:03:16;;;;;;;1.70;1.17;;;24.90;54.30;;;;;;5038620;28;20056;-55
2021/09/17 03:05:43;;;;;;;1.50;1.20;;;24.90;54.30;;;;;;5042084;28;20033;-59
2021/09/17 03:08:09;;;;;;;1.30;1.15;;;24.90;54.30;;;;;;5052092;28;20054;-56
2021/09/17 03:10:35;;;;;;;1.80;1.10;;;24.90;54.30;;;;;;5041022;28;20337;-58
2021/09/17 03:13:00;;;;;;;1.55;1.25;;;24.90;54.40;;;;;;5042561;28;20024;-60
2021/09/17 03:15:26;;;;;;;1.35;1.20;;;24.90;54.30;;;;;;5038988;28;20500;-52
2021/09/17 03:17:52;;;;;;;1.20;1.05;;;24.90;54.30;;;;;;5033828;28;20075;-59
2021/09/17 03:20:18;;;;;;;1.63;1.10;;;24.90;54.90;;;;;;5041943;28;20022;-53
2021/09/17 03:22:44;;;;;;;1.20;1.00;;;24.90;54.40;;;;;;5033782;28;20048;-58
2021/09/17 03:25:10;;;;;;;1.02;0.90;;;24.80;54.30;;;;;;5041656;28;20066;-57
2021/09/17 03:27:35;;;;;;;1.55;1.20;;;24.80;54.30;;;;;;5046280;28;20021;-58
2021/09/17 03:30:02;;;;;;;2.08;1.10;;;24.80;54.30;;;;;;5043375;28;20021;-59
2021/09/17 03:32:28;;;;;;;1.35;1.00;;;24.80;54.40;;;;;;5038926;28;20951;-55
2021/09/17 03:34:53;;;;;;;1.27;1.10;;;24.80;54.30;;;;;;5044995;28;20029;-59
2021/09/17 03:37:19;;;;;;;1.50;1.25;;;24.80;54.30;;;;;;5032669;28;20037;-60
2021/09/17 03:39:45;;;;;;;1.50;1.10;;;24.80;54.40;;;;;;5041835;28;20040;-59
2021/09/17 03:42:10;;;;;;;1.02;0.93;;;24.80;54.40;;;;;;5035874;28;20135;-59
2021/09/17 03:44:36;;;;;;;1.10;1.00;;;24.80;54.30;;;;;;5036590;28;20033;-50
2021/09/17 03:47:01;;;;;;;1.13;1.00;;;24.80;54.30;;;;;;5036829;28;20017;-58
2021/09/17 03:49:27;;;;;;;1.13;1.00;;;24.80;54.30;;;;;;5033635;28;20022;-59
2021/09/17 03:51:53;;;;;;;1.50;1.17;;;24.80;54.90;;;;;;5030380;28;20342;-59
2021/09/17 03:54:21;;;;;;;1.17;1.08;;;24.80;54.30;;;;;;5042155;28;20025;-59
2021/09/17 03:56:47;;;;;;;1.38;1.02;;;24.80;54.30;;;;;;5029781;28;20029;-54
2021/09/17 03:59:12;;;;;;;1.42;1.10;;;24.80;54.40;;;;;;5037503;28;22032;-60
2021/09/17 04:01:38;;;;;;;1.20;1.10;;;24.80;54.40;;;;;;5036808;28;20037;-59
2021/09/17 04:04:04;;;;;;;1.00;0.90;;;24.80;54.40;;;;;;5041940;28;20094;-55
2021/09/17 04:06:30;;;;;;;1.17;1.00;;;24.80;54.40;;;;;;5035765;28;20034;-56
2021/09/17 04:08:55;;;;;;;1.17;0.98;;;24.70;54.40;;;;;;5033601;28;20377;-55
2021/09/17 04:11:21;;;;;;;1.33;1.17;;;24.80;54.40;;;;;;5033363;28;20037;-51
2021/09/17 04:13:46;;;;;;;1.10;1.00;;;24.80;54.40;;;;;;5035806;28;20044;-60
2021/09/17 04:16:12;;;;;;;1.25;1.00;;;24.80;54.40;;;;;;5042138;28;20039;-57
2021/09/17 04:18:38;;;;;;;1.13;1.00;;;24.80;54.40;;;;;;5037264;28;20045;-59
2021/09/17 04:21:03;;;;;;;1.17;1.00;;;24.70;54.30;;;;;;5032265;28;20458;-57
2021/09/17 04:23:29;;;;;;;1.08;0.98;;;24.70;54.30;;;;;;5037073;28;20044;-60
2021/09/17 04:25:54;;;;;;;1.52;1.05;;;24.70;54.40;;;;;;5039045;28;20069;-55
2021/09/17 04:28:20;;;;;;;1.00;0.90;;;24.70;54.40;;;;;;5042032;28;20025;-60
2021/09/17 04:30:46;;;;;;;1.45;1.10;;;24.70;54.40;;;;;;5035490;28;20381;-49
2021/09/17 04:33:14;;;;;;;1.05;0.95;;;24.70;54.40;;;;;;5036591;28;20101;-48
2021/09/17 04:35:41;;;;;;;1.10;1.00;;;24.70;54.40;;;;;;5052772;28;20388;-53
2021/09/17 04:38:07;;;;;;;1.70;1.00;;;24.70;54.30;;;;;;5033995;28;20090;-56
2021/09/17 04:40:33;;;;;;;1.40;1.10;;;24.70;54.40;;;;;;5043486;28;20021;-58
2021/09/17 04:42:59;;;;;;;1.02;0.93;;;24.70;54.30;;;;;;5044471;28;20040;-59
2021/09/17 04:45:25;;;;;;;1.25;1.00;;;24.70;54.40;;;;;;5043938;28;20038;-56
2021/09/17 04:47:51;;;;;;;1.27;1.05;;;24.70;54.40;;;;;;5032027;28;20464;-59
2021/09/17 04:50:17;;;;;;;1.00;0.90;;;24.70;54.40;;;;;;5044489;28;20056;-55
2021/09/17 04:52:42;;;;;;;1.00;0.90;;;24.70;54.60;;;;;;5031862;28;20084;-54
2021/09/17 04:55:08;;;;;;;1.10;1.00;;;24.70;54.40;;;;;;5032953;28;20041;-53
2021/09/17 04:57:36;;;;;;;1.20;1.00;;;24.70;54.40;;;;;;5033365;28;20117;-59
2021/09/17 05:00:04;;;;;;;1.13;1.00;;;24.70;54.30;;;;;;5036959;28;20025;-53
2021/09/17 05:02:30;;;;;;;1.02;0.93;;;24.70;54.30;;;;;;5041540;28;20064;-56
2021/09/17 05:04:55;;;;;;;1.50;1.10;;;24.60;54.30;;;;;;5034332;28;20446;-53
2021/09/17 05:07:21;;;;;;;1.73;1.20;;;24.70;54.30;;;;;;5042415;28;20029;-54
2021/09/17 05:09:46;;;;;;;1.02;0.93;;;24.60;54.30;;;;;;5036114;28;20377;-50
2021/09/17 05:12:12;;;;;;;1.92;1.20;;;24.60;54.30;;;;;;5037280;28;20036;-47
2021/09/17 05:14:38;;;;;;;1.10;1.00;;;24.60;54.30;;;;;;5032440;28;20021;-59
2021/09/17 05:17:03;;;;;;;1.30;1.00;;;24.60;54.30;;;;;;5034571;28;20022;-55
2021/09/17 05:19:29;;;;;;;1.42;1.00;;;24.60;54.30;;;;;;5038277;28;20040;-57
2021/09/17 05:21:55;;;;;;;1.35;1.10;;;24.60;54.20;;;;;;5036743;28;20032;-55
2021/09/17 05:24:22;;;;;;;1.10;1.00;;;24.60;54.20;;;;;;5045504;28;20350;-55
2021/09/17 05:26:48;;;;;;;1.58;1.20;;;24.60;54.30;;;;;;5032714;28;20389;-59
2021/09/17 05:29:14;;;;;;;1.30;1.10;;;24.60;54.30;;;;;;5039094;28;20021;-50
2021/09/17 05:31:40;;;;;;;1.17;1.00;;;24.60;54.30;;;;;;5043052;28;20132;-48
2021/09/17 05:34:05;;;;;;;1.13;1.00;;;24.60;54.30;;;;;;5035089;28;20025;-48
2021/09/17 05:36:31;;;;;;;1.13;1.02;;;24.60;54.20;;;;;;5031926;28;20052;-59
2021/09/17 05:38:57;;;;;;;1.85;1.05;;;24.60;54.20;;;;;;5036744;28;20446;-54
2021/09/17 05:41:23;;;;;;;1.83;1.17;;;24.60;54.30;;;;;;5046214;28;20090;-53
2021/09/17 05:43:49;;;;;;;2.28;1.20;;;24.70;54.20;;;;;;5054406;28;20040;-56
2021/09/17 05:46:15;;;;;;;1.33;0.90;;;24.80;54.00;;;;;;5041193;28;20458;-59
2021/09/17 05:48:41;;;;;;;1.52;1.10;;;24.90;53.90;;;;;;5035863;28;20025;-54
2021/09/17 05:51:06;;;;;;;1.20;1.02;;;25.00;53.60;;;;;;5043699;28;20040;-55
2021/09/17 05:53:32;;;;;;;1.52;1.15;;;25.00;53.60;;;;;;5037453;28;20109;-58
2021/09/17 05:55:58;;;;;;;1.88;1.20;;;25.10;53.30;;;;;;5042619;28;20111;-56
2021/09/17 05:58:30;;;;;;;1.48;0.98;;;25.20;53.30;;;;;;5033522;28;20580;-53
2021/09/17 06:00:56;;;;;;;2.22;1.20;;;25.30;53.30;;;;;;5044032;28;20571;-57
2021/09/17 06:03:21;;;;;;;1.13;1.02;;;25.40;53.10;;;;;;5039270;28;20028;-59
2021/09/17 06:05:47;;;;;;;1.30;0.90;;;25.40;53.00;;;;;;5043563;28;20044;-60
2021/09/17 06:08:13;;;;;;;1.10;0.90;;;25.50;52.90;;;;;;5035396;28;20109;-60
2021/09/17 06:10:38;;;;;;;1.05;0.88;;;25.60;52.80;;;;;;5038192;28;20132;-59
2021/09/17 06:13:04;;;;;;;2.13;1.00;;;25.70;52.70;;;;;;5047597;28;20028;-59
2021/09/17 06:15:30;;;;;;;1.58;1.00;;;25.60;52.50;;;;;;5056764;28;20029;-54
2021/09/17 06:17:55;;;;;;;1.42;1.00;;;25.70;52.60;;;;;;5043073;28;20115;-60
2021/09/17 06:20:21;;;;;;;1.13;1.00;;;25.70;52.60;;;;;;5036715;28;20397;-59
2021/09/17 06:22:46;;;;;;;0.90;0.85;;;25.70;52.50;;;;;;5043821;28;20032;-54
2021/09/17 06:25:17;;;;;;;1.02;0.90;;;25.70;52.50;;;;;;5044493;28;20044;-59
2021/09/17 06:27:43;;;;;;;1.45;1.10;;;25.70;52.50;;;;;;5038102;28;20052;-59
2021/09/17 06:30:09;;;;;;;1.15;0.90;;;25.70;52.40;;;;;;5032603;28;20031;-59
2021/09/17 06:32:35;;;;;;;1.63;1.08;;;25.70;52.40;;;;;;5029843;28;20149;-59
2021/09/17 06:35:00;;;;;;;1.05;0.90;;;25.70;52.40;;;;;;5029124;28;20029;-59
2021/09/17 06:37:26;;;;;;;1.10;1.00;;;25.70;52.30;;;;;;5033108;28;20436;-54
2021/09/17 06:39:52;;;;;;;1.25;0.88;;;25.80;52.30;;;;;;5042200;28;20106;-59
2021/09/17 06:42:17;;;;;;;1.70;1.10;;;25.80;52.30;;;;;;5038840;28;20213;-55
2021/09/17 06:44:43;;;;;;;1.25;0.93;;;25.80;52.30;;;;;;5033599;28;20040;-59
2021/09/17 06:47:08;;;;;;;1.10;1.00;;;25.80;52.20;;;;;;5047634;28;20028;-60
2021/09/17 06:49:34;;;;;;;1.40;1.00;;;25.80;52.20;;;;;;5037960;28;20432;-55
2021/09/17 06:52:00;;;;;;;1.00;0.90;;;25.80;52.20;;;;;;5041442;28;20600;-57
2021/09/17 06:54:25;;;;;;;1.40;1.00;;;25.80;52.20;;;;;;5036630;28;20122;-60
2021/09/17 06:56:51;;;;;;;0.80;0.80;;;25.80;52.20;;;;;;5044827;28;20160;-56
2021/09/17 06:59:16;;;;;;;1.27;1.00;;;25.80;52.00;;;;;;5039796;28;20037;-60
2021/09/17 07:01:42;;;;;;;1.23;1.10;;;25.90;52.10;;;;;;5039578;28;20389;-59
2021/09/17 07:04:08;;;;;;;1.13;1.00;;;25.90;52.10;;;;;;5040147;28;20033;-60
2021/09/17 07:06:34;;;;;;;1.42;1.05;;;25.90;52.00;;;;;;5043739;28;20117;-58
2021/09/17 07:08:59;;;;;;;1.20;1.00;;;25.90;51.90;;;;;;5045250;28;20021;-56
2021/09/17 07:11:27;;;;;;;1.60;1.10;;;25.90;51.90;;;;;;5043589;28;20105;-60
2021/09/17 07:13:53;;;;;;;1.83;1.20;;;26.00;52.30;;;;;;5043682;28;20503;-52
2021/09/17 07:16:18;;;;;;;1.45;1.00;;;26.00;51.90;;;;;;5044945;28;20063;-59
2021/09/17 07:18:44;;;;;;;2.08;1.13;;;26.00;51.90;;;;;;5036366;28;20501;-59
2021/09/17 07:21:10;;;;;;;1.63;1.15;;;26.00;51.80;;;;;;5043227;28;20128;-58
2021/09/17 07:23:35;;;;;;;0.85;0.82;;;26.00;51.80;;;;;;5044651;28;20025;-58
2021/09/17 07:26:01;;;;;;;1.08;0.98;;;26.00;51.80;;;;;;5036952;28;20070;-53
2021/09/17 07:28:31;;;;;;;1.30;1.00;;;26.00;51.80;;;;;;5041498;28;20701;-60
2021/09/17 07:30:57;;;;;;;1.10;0.90;;;26.00;52.10;;;;;;5031275;28;20041;-60
2021/09/17 07:33:23;;;;;;;1.30;0.90;;;26.00;52.00;;;;;;5043621;28;20461;-58
2021/09/17 07:35:49;;;;;;;1.10;1.00;;;26.00;51.90;;;;;;5042372;28;20097;-55
2021/09/17 07:38:14;;;;;;;1.13;1.00;;;26.00;52.00;;;;;;5039227;28;20057;-59
2021/09/17 07:40:40;;;;;;;2.00;0.80;;;26.00;52.00;;;;;;5040945;28;20029;-56
2021/09/17 07:43:06;;;;;;;1.10;0.90;;;26.00;52.10;;;;;;5039105;28;20135;-59
2021/09/17 07:45:32;;;;;;;1.33;1.00;;;26.00;52.00;;;;;;5043244;28;20037;-60
2021/09/17 07:47:59;;;;;;;1.88;1.40;;;26.00;52.00;;;;;;5046890;28;20116;-60
2021/09/17 07:50:25;;;;;;;1.35;1.10;;;26.00;51.80;;;;;;5041569;28;20021;-57
2021/09/17 07:52:51;;;;;;;1.33;1.00;;;26.00;52.00;;;;;;5039500;28;20520;-56
2021/09/17 07:55:17;;;;;;;1.25;0.90;;;26.00;52.00;;;;;;5041133;28;20103;-58
2021/09/17 07:57:43;;;;;;;1.20;1.00;;;26.00;52.00;;;;;;5043363;28;20090;-55
2021/09/17 08:00:11;;;;;;;1.30;0.90;;;26.00;52.20;;;;;;5033943;28;20029;-59
2021/09/17 08:02:37;;;;;;;1.95;1.20;;;26.00;52.10;;;;;;5041216;28;20037;-55
2021/09/17 08:05:03;;;;;;;0.70;0.70;;;26.10;52.30;;;;;;5045477;28;20526;-53
2021/09/17 08:07:32;;;;;;;1.20;0.90;;;26.10;52.30;;;;;;5056256;28;20024;-61
2021/09/17 08:09:57;;;;;;;1.33;1.00;;;26.10;52.30;;;;;;5035021;28;20108;-56
2021/09/17 08:12:23;;;;;;;1.45;0.85;;;26.10;52.20;;;;;;5035644;28;20116;-58
2021/09/17 08:14:49;;;;;;;1.60;0.80;;;26.10;52.30;;;;;;5029896;28;20025;-61
2021/09/17 08:17:14;;;;;;;0.90;0.80;;;26.20;52.60;;;;;;5045430;28;20028;-56
2021/09/17 08:19:40;;;;;;;1.70;1.00;;;26.10;52.50;;;;;;5043040;28;20401;-57
2021/09/17 08:22:06;;;;;;;1.60;1.00;;;26.10;52.30;;;;;;5034627;28;20506;-60
2021/09/17 08:24:32;;;;;;;2.33;1.70;;;26.10;52.60;;;;;;5039808;28;20104;-58
2021/09/17 08:27:00;;;;;;;4.53;3.00;;;26.10;51.00;;;;;;5026936;28;20029;-58
2021/09/17 08:29:26;;;;;;;4.78;3.17;;;26.00;49.70;;;;;;5039644;28;20131;-57
2021/09/17 08:31:54;;;;;;;3.70;3.08;;;25.90;48.70;;;;;;5040407;28;20171;-56
2021/09/17 08:34:20;;;;;;;4.03;3.30;;;25.70;48.30;;;;;;5036827;28;20412;-56
2021/09/17 08:36:46;;;;;;;5.90;3.35;;;25.60;48.30;;;;;;5031346;28;20043;-58
2021/09/17 08:39:12;;;;;;;4.10;3.40;;;25.50;48.00;;;;;;5044664;28;20083;-53
2021/09/17 08:41:37;;;;;;;4.25;3.53;;;25.50;47.80;;;;;;5033999;28;20648;-59
2021/09/17 08:44:04;;;;;;;4.15;3.30;;;25.40;48.20;;;;;;5031381;28;20099;-52
2021/09/17 08:46:30;;;;;;;3.17;2.65;;;25.40;47.70;;;;;;5034687;28;20127;-54
2021/09/17 08:48:57;;;;;;;3.38;2.83;;;25.40;48.00;;;;;;5036872;28;20021;-59
2021/09/17 08:51:23;;;;;;;5.22;3.83;;;25.40;47.10;;;;;;5047329;28;20045;-59
2021/09/17 08:53:49;;;;;;;5.03;3.63;;;25.20;47.10;;;;;;5039123;28;20057;-48
2021/09/17 08:56:16;;;;;;;4.13;3.30;;;25.10;47.50;;;;;;5043911;28;20067;-58
2021/09/17 08:58:45;;;;;;;3.53;3.17;;;25.10;47.20;;;;;;5034177;28;20203;-52
2021/09/17 09:01:31;;;;;;;4.13;3.30;;;25.00;46.90;;;;;;5042849;28;20051;-54
2021/09/17 09:04:02;;;;;;;3.58;2.70;;;25.00;47.40;;;;;;5035097;28;20029;-59
2021/09/17 09:06:41;;;;;;;5.22;3.55;;;25.00;47.90;;;;;;5047170;28;20115;-58
2021/09/17 09:09:23;;;;;;;5.20;3.55;;;25.00;47.80;;;;;;5044124;28;20062;-59
2021/09/17 09:11:51;;;;;;;4.32;3.63;;;24.90;47.50;;;;;;5042651;28;20681;-50
2021/09/17 09:14:18;;;;;;;4.43;3.80;;;24.90;47.50;;;;;;5046302;28;20021;-57
2021/09/17 09:16:49;;;;;;;5.13;4.10;;;24.80;47.00;;;;;;5043668;28;20041;-57
2021/09/17 09:19:27;;;;;;;4.82;3.90;;;24.70;47.40;;;;;;5034908;28;20060;-53
2021/09/17 09:22:02;;;;;;;6.07;4.20;;;24.70;47.60;;;;;;5038320;28;20067;-52
2021/09/17 09:24:28;;;;;;;4.88;3.90;;;24.50;47.50;;;;;;5044312;28;20037;-57
2021/09/17 09:27:16;;;;;;;4.95;3.88;;;24.50;47.80;;;;;;5034744;28;20117;-59
2021/09/17 09:29:48;;;;;;;4.78;3.55;;;24.40;47.40;;;;;;5042251;28;20104;-58
2021/09/17 09:32:33;;;;;;;5.60;4.03;;;24.40;48.10;;;;;;5039577;28;20112;-59
2021/09/17 09:35:04;;;;;;;5.28;3.97;;;24.50;48.30;;;;;;5040472;28;20038;-60
2021/09/17 09:37:33;;;;;;;4.95;3.83;;;24.50;48.40;;;;;;5044743;28;20033;-57
2021/09/17 09:40:06;;;;;;;3.63;2.95;;;24.60;48.20;;;;;;5045464;28;20051;-59
2021/09/17 09:42:38;;;;;;;4.85;3.50;;;24.60;48.40;;;;;;5036087;28;20080;-56
2021/09/17 09:45:16;;;;;;;6.03;4.10;;;24.60;48.00;;;;;;5045483;28;20565;-52
2021/09/17 09:47:44;;;;;;;5.28;4.25;;;24.50;47.70;;;;;;5046913;28;20029;-60
2021/09/17 09:50:13;;;;;;;4.82;3.05;;;24.40;47.90;;;;;;5034707;28;20068;-59
2021/09/17 09:52:39;;;;;;;4.53;3.83;;;24.40;47.80;;;;;;5041640;28;20429;-54
2021/09/17 09:55:06;;;;;;;4.55;3.65;;;24.50;47.80;;;;;;5042370;28;20060;-60
2021/09/17 09:57:35;;;;;;;4.10;3.65;;;24.40;47.90;;;;;;5052431;28;20489;-59
2021/09/17 10:00:04;;;;;;;3.90;3.25;;;24.40;47.90;;;;;;5030329;28;20025;-59
2021/09/17 10:02:31;;;;;;;3.88;2.70;;;24.50;48.20;;;;;;5044455;28;20049;-59
2021/09/17 10:04:59;;;;;;;3.90;2.70;;;24.50;48.30;;;;;;5042067;28;20033;-49
2021/09/17 10:07:30;;;;;;;3.75;2.50;;;24.50;48.30;;;;;;5036038;28;20051;-55
2021/09/17 10:09:57;;;;;;;3.42;2.67;;;24.60;48.60;;;;;;5034771;28;20040;-59
2021/09/17 10:12:24;;;;;;;3.25;2.63;;;24.60;48.40;;;;;;5036194;28;20032;-57
2021/09/17 10:14:50;;;;;;;4.40;3.58;;;24.50;48.10;;;;;;5035255;28;20025;-54
2021/09/17 10:17:21;;;;;;;3.85;2.97;;;24.40;48.30;;;;;;5042207;28;20066;-59
2021/09/17 10:19:52;;;;;;;3.80;2.90;;;24.40;48.20;;;;;;5046003;28;20068;-56
2021/09/17 10:22:39;;;;;;;4.75;3.50;;;24.40;48.10;;;;;;5044917;28;20033;-56
2021/09/17 10:25:13;;;;;;;4.43;3.35;;;24.20;47.90;;;;;;5035539;28;20032;-52
2021/09/17 10:27:41;;;;;;;3.55;2.50;;;24.20;48.30;;;;;;5038811;28;20021;-59
2021/09/17 10:30:13;;;;;;;3.10;2.20;;;24.30;48.60;;;;;;5035193;28;20759;-59
2021/09/17 10:32:48;;;;;;;2.78;1.80;;;24.30;48.70;;;;;;5032411;28;20691;-49
2021/09/17 10:35:42;;;;;;;2.40;1.83;;;24.40;48.80;;;;;;5036806;28;20025;-60
2021/09/17 10:38:17;;;;;;;3.67;1.70;;;24.50;48.80;;;;;;5030811;28;20053;-54
2021/09/17 10:40:51;;;;;;;2.17;1.60;;;24.60;48.90;;;;;;5031514;28;20040;-52
2021/09/17 10:43:38;;;;;;;2.17;1.30;;;24.60;49.00;;;;;;5038236;28;20060;-55
2021/09/17 10:46:29;;;;;;;2.58;1.27;;;24.60;48.90;;;;;;5034536;28;20334;-54
2021/09/17 10:48:58;;;;;;;2.28;1.30;;;24.60;49.00;;;;;;5036405;28;20090;-58
2021/09/17 10:51:39;;;;;;;1.83;1.20;;;24.70;49.10;;;;;;5047243;28;20029;-60
2021/09/17 10:54:15;;;;;;;2.28;1.40;;;24.70;49.20;;;;;;5030366;28;20231;-52
2021/09/17 10:56:47;;;;;;;1.83;1.02;;;24.70;49.20;;;;;;5044337;28;20577;-58
2021/09/17 10:59:27;;;;;;;1.67;1.10;;;24.80;49.40;;;;;;5044516;28;20124;-57
2021/09/17 11:02:01;;;;;;;1.23;0.88;;;24.80;49.40;;;;;;5036813;28;20076;-59
2021/09/17 11:04:43;;;;;;;1.70;1.00;;;24.80;49.50;;;;;;5037380;28;20052;-57
2021/09/17 11:07:21;;;;;;;1.60;1.10;;;24.80;49.60;;;;;;5042369;28;20028;-59
2021/09/17 11:09:50;;;;;;;1.67;1.05;;;24.90;49.60;;;;;;5047005;28;20053;-56
2021/09/17 11:12:22;;;;;;;1.88;1.02;;;24.90;49.70;;;;;;5039375;28;20132;-58
2021/09/17 11:15:06;;;;;;;1.60;1.00;;;24.90;49.60;;;;;;5043835;28;20029;-55
2021/09/17 11:17:46;;;;;;;1.17;0.90;;;25.00;50.00;;;;;;5051614;28;20021;-58
2021/09/17 11:20:23;;;;;;;1.90;1.00;;;25.00;49.90;;;;;;5039404;28;20025;-58
2021/09/17 11:22:58;;;;;;;1.58;0.93;;;25.00;50.20;;;;;;5038518;28;20029;-59
2021/09/17 11:25:44;;;;;;;1.65;1.08;;;25.00;50.20;;;;;;5035978;28;20043;-56
2021/09/17 11:28:19;;;;;;;1.75;1.00;;;25.00;50.00;;;;;;5039216;28;20056;-51
2021/09/17 11:30:45;;;;;;;1.27;1.00;;;25.10;50.00;;;;;;5045737;28;20037;-59
2021/09/17 11:33:18;;;;;;;1.40;0.95;;;25.10;50.00;;;;;;5042478;28;20033;-59
2021/09/17 11:35:45;;;;;;;2.00;0.93;;;25.10;50.30;;;;;;5036310;28;20176;-51
2021/09/17 11:38:12;;;;;;;1.00;0.90;;;25.10;50.20;;;;;;5041421;28;20373;-59
2021/09/17 11:40:50;;;;;;;1.50;1.00;;;25.10;50.10;;;;;;5033781;28;20060;-51
2021/09/17 11:43:16;;;;;;;2.03;1.10;;;25.20;50.10;;;;;;5038511;28;20457;-57
2021/09/17 11:45:49;;;;;;;0.98;0.88;;;25.20;50.00;;;;;;5036523;28;20079;-59
2021/09/17 11:48:23;;;;;;;1.95;1.10;;;25.20;50.10;;;;;;5044318;28;20033;-54
2021/09/17 11:50:50;;;;;;;1.50;1.40;;;25.20;50.10;;;;;;5036853;28;20074;-60
2021/09/17 11:53:15;;;;;;;1.63;1.00;;;25.20;50.10;;;;;;5043042;28;20037;-59
2021/09/17 11:55:41;;;;;;;1.38;0.90;;;25.20;50.10;;;;;;5041708;28;20731;-59
2021/09/17 11:58:06;;;;;;;1.40;0.95;;;25.20;50.10;;;;;;5043094;28;20150;-54
2021/09/17 12:00:32;;;;;;;1.35;1.00;;;25.20;50.20;;;;;;5045534;28;20033;-53
2021/09/17 12:03:06;;;;;;;1.27;0.90;;;25.20;50.20;;;;;;5041497;28;20093;-56
2021/09/17 12:05:35;;;;;;;1.50;1.02;;;25.20;50.20;;;;;;5041140;28;20215;-59
2021/09/17 12:08:01;;;;;;;1.10;0.85;;;25.20;50.20;;;;;;5038532;28;20117;-58
2021/09/17 12:10:32;;;;;;;1.05;0.90;;;25.20;50.20;;;;;;5041005;28;20029;-60
2021/09/17 12:13:10;;;;;;;1.25;1.00;;;25.20;50.30;;;;;;5037223;28;20442;-59
2021/09/17 12:15:38;;;;;;;1.17;0.93;;;25.10;50.30;;;;;;5041159;28;20040;-59
2021/09/17 12:18:06;;;;;;;1.00;0.90;;;25.10;50.40;;;;;;5029919;28;20108;-59
2021/09/17 12:20:54;;;;;;;1.42;1.10;;;25.10;50.40;;;;;;5047009;28;20377;-54
2021/09/17 12:23:22;;;;;;;1.33;1.00;;;25.10;50.40;;;;;;5041740;28;20029;-56
2021/09/17 12:25:50;;;;;;;1.30;0.97;;;25.10;50.40;;;;;;5029529;28;20514;-52
2021/09/17 12:28:21;;;;;;;1.65;0.90;;;25.10;50.40;;;;;;5045797;28;20277;-60
2021/09/17 12:30:49;;;;;;;1.10;0.95;;;25.10;50.40;;;;;;5038525;28;20025;-59
2021/09/17 12:33:26;;;;;;;1.30;0.98;;;25.10;50.40;;;;;;5038925;28;20025;-56
2021/09/17 12:35:55;;;;;;;1.08;0.90;;;25.10;50.40;;;;;;5040783;28;20033;-56
2021/09/17 12:38:25;;;;;;;0.85;0.80;;;25.10;50.50;;;;;;5031642;28;20765;-59
2021/09/17 12:40:56;;;;;;;1.40;0.90;;;25.10;50.50;;;;;;5034336;28;20517;-56
2021/09/17 12:43:27;;;;;;;2.20;1.05;;;25.10;50.60;;;;;;5044474;28;20041;-59
2021/09/17 12:46:13;;;;;;;1.08;0.90;;;25.00;50.50;;;;;;5042310;28;20024;-61
2021/09/17 12:48:42;;;;;;;1.58;1.00;;;25.00;50.60;;;;;;5033661;28;20047;-59
2021/09/17 12:51:15;;;;;;;0.70;0.70;;;25.00;50.60;;;;;;5041357;28;20059;-59